createdAt,value
2022-12-31T00:07:21.748Z,996
2022-12-31T00:17:22.892Z,996
2022-12-31T00:27:24.079Z,996
2022-12-31T00:37:25.281Z,996
2022-12-31T00:47:26.484Z,996
2022-12-31T00:57:27.640Z,996
2022-12-31T01:07:28.782Z,997
2022-12-31T01:17:29.957Z,997
2022-12-31T01:27:31.567Z,997
2022-12-31T01:37:32.765Z,997
2022-12-31T01:47:34.375Z,997
2022-12-31T01:57:35.542Z,997
2022-12-31T02:07:36.689Z,997
2022-12-31T02:17:37.794Z,997
2022-12-31T02:27:38.888Z,997
2022-12-31T02:37:40.010Z,997
2022-12-31T02:47:42.048Z,997
2022-12-31T02:57:43.246Z,997
2022-12-31T03:07:44.415Z,997
2022-12-31T03:17:45.540Z,997
2022-12-31T03:27:46.627Z,997
2022-12-31T03:37:47.755Z,997
2022-12-31T03:47:48.915Z,997
2022-12-31T03:57:50.037Z,997
2022-12-31T04:07:51.358Z,997
2022-12-31T04:17:52.543Z,997
2022-12-31T04:27:53.669Z,997
2022-12-31T04:37:54.782Z,997
2022-12-31T04:47:55.904Z,997
2022-12-31T04:57:57.079Z,997
2022-12-31T05:07:58.331Z,997
2022-12-31T05:17:59.476Z,997
2022-12-31T05:28:00.899Z,998
2022-12-31T05:38:02.220Z,997
2022-12-31T05:48:04.000Z,998
2022-12-31T05:58:05.775Z,998
2022-12-31T06:08:07.560Z,998
2022-12-31T06:18:09.213Z,998
2022-12-31T06:28:16.149Z,998
2022-12-31T06:38:21.366Z,998
2022-12-31T06:48:22.532Z,998
2022-12-31T06:58:23.655Z,998
2022-12-31T07:08:24.855Z,999
2022-12-31T07:18:25.982Z,998
2022-12-31T07:28:27.118Z,998
2022-12-31T07:38:28.340Z,998
2022-12-31T07:48:29.517Z,999
2022-12-31T07:58:30.859Z,999
2022-12-31T08:08:31.996Z,999
2022-12-31T08:18:33.118Z,999
2022-12-31T08:28:34.263Z,999
2022-12-31T08:38:35.414Z,999
2022-12-31T08:48:36.611Z,999
2022-12-31T08:58:37.742Z,999
2022-12-31T09:08:39.026Z,1000
2022-12-31T09:18:40.214Z,1000
2022-12-31T09:28:41.546Z,1000
2022-12-31T09:38:42.808Z,1000
2022-12-31T09:48:43.949Z,1000
2022-12-31T09:58:45.076Z,1000
2022-12-31T10:08:46.296Z,1001
2022-12-31T10:18:47.613Z,1000
2022-12-31T10:28:48.834Z,1001
2022-12-31T10:38:50.086Z,1001
2022-12-31T10:48:51.503Z,1001
2022-12-31T10:58:52.627Z,1001
2022-12-31T11:08:54.036Z,1001
2022-12-31T11:18:55.285Z,1001
2022-12-31T11:28:56.745Z,1001
2022-12-31T11:38:58.012Z,1001
2022-12-31T11:48:59.164Z,1001
2022-12-31T11:59:03.645Z,1001
2022-12-31T12:09:09.492Z,1001
2022-12-31T12:19:11.146Z,1001
2022-12-31T12:29:12.347Z,1001
2022-12-31T12:39:13.747Z,1001
2022-12-31T12:49:15.006Z,1001
2022-12-31T12:59:16.203Z,1000
2022-12-31T13:09:17.333Z,1000
2022-12-31T13:19:18.710Z,1000
2022-12-31T13:29:19.847Z,1000
2022-12-31T13:39:21.169Z,1000
2022-12-31T13:49:26.147Z,1000
2022-12-31T13:59:27.538Z,1000
2022-12-31T14:09:28.716Z,1000
2022-12-31T14:19:34.187Z,1000
2022-12-31T14:29:37.719Z,1000
2022-12-31T14:39:38.860Z,1000
2022-12-31T14:49:40.047Z,1000
2022-12-31T14:59:41.446Z,1000
2022-12-31T15:09:42.535Z,1000
2022-12-31T15:19:44.178Z,1000
2022-12-31T15:29:45.370Z,1000
2022-12-31T15:39:46.534Z,1000
2022-12-31T15:49:47.901Z,1000
2022-12-31T15:59:49.124Z,1000
2022-12-31T16:09:50.372Z,1000
2022-12-31T16:19:51.612Z,1000
2022-12-31T16:29:56.004Z,1000
2022-12-31T16:40:01.748Z,1000
2022-12-31T16:50:03.550Z,1000
2022-12-31T17:00:05.343Z,1000
2022-12-31T17:10:07.350Z,1000
2022-12-31T17:20:09.202Z,1000
2022-12-31T17:30:10.830Z,1000
2022-12-31T17:40:49.126Z,1000
2022-12-31T17:50:51.908Z,1000
2022-12-31T18:00:53.258Z,1000
2022-12-31T18:10:54.644Z,1000
2022-12-31T18:20:55.808Z,1000
2022-12-31T18:30:56.967Z,1000
2022-12-31T18:40:58.177Z,1000
2022-12-31T18:51:00.947Z,1000
2022-12-31T19:01:02.765Z,1000
2022-12-31T19:11:15.736Z,1000
2022-12-31T19:21:16.949Z,1000
2022-12-31T19:31:18.515Z,1000
2022-12-31T19:41:19.757Z,1000
2022-12-31T19:51:21.164Z,1000
2022-12-31T20:01:22.506Z,1000
2022-12-31T20:11:23.833Z,1000
2022-12-31T20:21:24.994Z,1000
2022-12-31T20:31:26.180Z,1000
2022-12-31T20:41:27.392Z,1001
2022-12-31T20:51:28.531Z,1001
2022-12-31T21:01:48.255Z,1001
2022-12-31T21:12:20.413Z,1001
2022-12-31T21:22:21.673Z,1001
2022-12-31T21:32:22.856Z,1001
2022-12-31T21:42:24.238Z,1001
2022-12-31T21:52:25.553Z,1001
2022-12-31T22:02:27.002Z,1001
2022-12-31T22:12:28.264Z,1001
2022-12-31T22:22:29.540Z,1002
2022-12-31T22:32:30.900Z,1002
2022-12-31T22:42:32.087Z,1002
2022-12-31T22:52:33.199Z,1002
2022-12-31T23:02:39.888Z,1002
2022-12-31T23:12:42.773Z,1002
2022-12-31T23:22:44.148Z,1002
2022-12-31T23:32:45.534Z,1003
2022-12-31T23:42:46.720Z,1003
2022-12-31T23:52:48.159Z,1003
